sensor_id;sensor_type;location;lat;lon;timestamp;pressure;altitude;pressure_sealevel;temperature;humidity
8575;BME280;4325;42.520;27.448;2022-10-16T00:02:23;101772.06;;;15.63;75.38
8575;BME280;4325;42.520;27.448;2022-10-16T00:04:50;101772.59;;;15.65;75.09
8575;BME280;4325;42.520;27.448;2022-10-16T00:07:17;101773.72;;;15.64;74.89
8575;BME280;4325;42.520;27.448;2022-10-16T00:09:44;101768.19;;;15.64;74.05
8575;BME280;4325;42.520;27.448;2022-10-16T00:12:12;101767.63;;;15.67;73.10
8575;BME280;4325;42.520;27.448;2022-10-16T00:14:39;101772.03;;;15.68;72.61
8575;BME280;4325;42.520;27.448;2022-10-16T00:17:08;101766.22;;;15.70;72.62
8575;BME280;4325;42.520;27.448;2022-10-16T00:19:34;101769.28;;;15.68;71.79
8575;BME280;4325;42.520;27.448;2022-10-16T00:22:01;101773.41;;;15.71;70.97
8575;BME280;4325;42.520;27.448;2022-10-16T00:24:28;101773.13;;;15.67;69.76
8575;BME280;4325;42.520;27.448;2022-10-16T00:26:55;101770.94;;;15.69;68.71
8575;BME280;4325;42.520;27.448;2022-10-16T00:29:23;101775.88;;;15.72;68.43
8575;BME280;4325;42.520;27.448;2022-10-16T00:31:50;101775.63;;;15.69;68.46
8575;BME280;4325;42.520;27.448;2022-10-16T00:34:17;101787.53;;;15.69;68.36
8575;BME280;4325;42.520;27.448;2022-10-16T00:36:44;101782.25;;;15.68;68.63
8575;BME280;4325;42.520;27.448;2022-10-16T00:39:11;101784.19;;;15.67;67.91
8575;BME280;4325;42.520;27.448;2022-10-16T00:41:38;101778.41;;;15.64;68.09
8575;BME280;4325;42.520;27.448;2022-10-16T00:47:08;101787.50;;;15.74;65.51
8575;BME280;4325;42.520;27.448;2022-10-16T00:49:36;101780.31;;;15.68;65.72
8575;BME280;4325;42.520;27.448;2022-10-16T00:52:03;101788.06;;;15.66;65.67
8575;BME280;4325;42.520;27.448;2022-10-16T00:54:31;101786.97;;;15.62;65.37
8575;BME280;4325;42.520;27.448;2022-10-16T00:57:01;101788.63;;;15.63;65.18
8575;BME280;4325;42.520;27.448;2022-10-16T00:59:32;101781.44;;;15.62;64.69
8575;BME280;4325;42.520;27.448;2022-10-16T01:02:00;101798.28;;;15.66;63.69
8575;BME280;4325;42.520;27.448;2022-10-16T01:04:31;101797.44;;;15.65;63.71
8575;BME280;4325;42.520;27.448;2022-10-16T01:07:05;101803.53;;;15.62;63.19
8575;BME280;4325;42.520;27.448;2022-10-16T01:09:39;101793.06;;;15.59;62.49
8575;BME280;4325;42.520;27.448;2022-10-16T01:12:10;101797.75;;;15.59;62.41
8575;BME280;4325;42.520;27.448;2022-10-16T01:14:44;101794.44;;;15.57;62.20
8575;BME280;4325;42.520;27.448;2022-10-16T01:17:15;101805.75;;;15.55;61.80
8575;BME280;4325;42.520;27.448;2022-10-16T01:19:57;101805.50;;;15.52;61.76
8575;BME280;4325;42.520;27.448;2022-10-16T01:22:33;101813.78;;;15.47;62.12
8575;BME280;4325;42.520;27.448;2022-10-16T01:25:05;101805.78;;;15.45;62.13
8575;BME280;4325;42.520;27.448;2022-10-16T01:27:40;101817.59;;;15.41;62.38
8575;BME280;4325;42.520;27.448;2022-10-16T01:30:11;101818.97;;;15.38;61.81
8575;BME280;4325;42.520;27.448;2022-10-16T01:32:41;101809.63;;;15.39;61.52
8575;BME280;4325;42.520;27.448;2022-10-16T01:35:11;101821.19;;;15.36;61.21
8575;BME280;4325;42.520;27.448;2022-10-16T01:37:45;101811.84;;;15.32;61.44
8575;BME280;4325;42.520;27.448;2022-10-16T01:40:16;101814.88;;;15.26;61.63
8575;BME280;4325;42.520;27.448;2022-10-16T01:42:49;101813.50;;;15.23;61.40
8575;BME280;4325;42.520;27.448;2022-10-16T01:45:20;101811.28;;;15.20;62.22
8575;BME280;4325;42.520;27.448;2022-10-16T01:47:49;101810.19;;;15.16;62.47
8575;BME280;4325;42.520;27.448;2022-10-16T01:50:19;101814.03;;;15.05;63.17
8575;BME280;4325;42.520;27.448;2022-10-16T01:52:49;101826.19;;;14.99;63.95
8575;BME280;4325;42.520;27.448;2022-10-16T01:55:21;101823.66;;;14.87;65.37
8575;BME280;4325;42.520;27.448;2022-10-16T01:57:53;101828.34;;;14.77;66.13
8575;BME280;4325;42.520;27.448;2022-10-16T02:00:22;101823.34;;;14.64;67.37
8575;BME280;4325;42.520;27.448;2022-10-16T02:02:52;101827.19;;;14.52;68.80
8575;BME280;4325;42.520;27.448;2022-10-16T02:05:25;101829.63;;;14.39;69.77
8575;BME280;4325;42.520;27.448;2022-10-16T02:07:53;101832.31;;;14.29;70.78
8575;BME280;4325;42.520;27.448;2022-10-16T02:10:21;101831.97;;;14.15;71.51
8575;BME280;4325;42.520;27.448;2022-10-16T02:12:53;101836.84;;;13.98;72.72
8575;BME280;4325;42.520;27.448;2022-10-16T02:15:22;101841.19;;;13.84;73.55
8575;BME280;4325;42.520;27.448;2022-10-16T02:17:49;101842.75;;;13.70;74.22
8575;BME280;4325;42.520;27.448;2022-10-16T02:20:17;101846.53;;;13.59;74.96
8575;BME280;4325;42.520;27.448;2022-10-16T02:22:49;101850.03;;;13.49;75.54
8575;BME280;4325;42.520;27.448;2022-10-16T02:25:19;101856.25;;;13.35;76.25
8575;BME280;4325;42.520;27.448;2022-10-16T02:27:54;101857.25;;;13.23;76.86
8575;BME280;4325;42.520;27.448;2022-10-16T02:30:27;101855.53;;;13.17;77.27
8575;BME280;4325;42.520;27.448;2022-10-16T02:32:56;101857.16;;;13.13;77.37
8575;BME280;4325;42.520;27.448;2022-10-16T02:35:25;101856.00;;;13.09;77.35
8575;BME280;4325;42.520;27.448;2022-10-16T02:37:53;101859.22;;;13.01;77.49
8575;BME280;4325;42.520;27.448;2022-10-16T02:40:21;101860.75;;;12.92;78.10
8575;BME280;4325;42.520;27.448;2022-10-16T02:42:50;101868.94;;;12.82;78.59
8575;BME280;4325;42.520;27.448;2022-10-16T02:45:21;101871.25;;;12.69;79.41
8575;BME280;4325;42.520;27.448;2022-10-16T02:47:48;101862.09;;;12.63;79.72
8575;BME280;4325;42.520;27.448;2022-10-16T02:50:16;101870.50;;;12.51;80.73
8575;BME280;4325;42.520;27.448;2022-10-16T02:52:43;101872.09;;;12.47;81.60
8575;BME280;4325;42.520;27.448;2022-10-16T02:55:10;101865.72;;;12.42;81.96
8575;BME280;4325;42.520;27.448;2022-10-16T02:57:37;101872.31;;;12.41;82.32
8575;BME280;4325;42.520;27.448;2022-10-16T03:00:06;101859.00;;;12.33;82.29
8575;BME280;4325;42.520;27.448;2022-10-16T03:02:35;101866.13;;;12.29;83.26
8575;BME280;4325;42.520;27.448;2022-10-16T03:05:02;101862.47;;;12.23;83.75
8575;BME280;4325;42.520;27.448;2022-10-16T03:07:29;101864.13;;;12.24;83.71
8575;BME280;4325;42.520;27.448;2022-10-16T03:09:56;101879.13;;;12.17;84.17
8575;BME280;4325;42.520;27.448;2022-10-16T03:12:25;101883.38;;;12.08;84.80
8575;BME280;4325;42.520;27.448;2022-10-16T03:14:52;101888.31;;;12.06;85.48
8575;BME280;4325;42.520;27.448;2022-10-16T03:17:19;101877.25;;;12.01;85.73
8575;BME280;4325;42.520;27.448;2022-10-16T03:19:47;101881.84;;;11.95;86.66
8575;BME280;4325;42.520;27.448;2022-10-16T03:22:14;101876.59;;;11.93;87.16
8575;BME280;4325;42.520;27.448;2022-10-16T03:24:41;101879.00;;;11.90;87.21
8575;BME280;4325;42.520;27.448;2022-10-16T03:27:08;101882.28;;;11.87;87.55
8575;BME280;4325;42.520;27.448;2022-10-16T03:29:35;101878.63;;;11.81;88.22
8575;BME280;4325;42.520;27.448;2022-10-16T03:32:02;101881.28;;;11.76;88.65
8575;BME280;4325;42.520;27.448;2022-10-16T03:34:29;101876.66;;;11.77;89.16
8575;BME280;4325;42.520;27.448;2022-10-16T03:36:57;101885.06;;;11.70;89.77
8575;BME280;4325;42.520;27.448;2022-10-16T03:39:24;101879.19;;;11.67;90.65
8575;BME280;4325;42.520;27.448;2022-10-16T03:41:51;101872.88;;;11.66;90.99
8575;BME280;4325;42.520;27.448;2022-10-16T03:44:18;101880.03;;;11.67;92.11
8575;BME280;4325;42.520;27.448;2022-10-16T03:46:44;101881.88;;;11.62;92.58
8575;BME280;4325;42.520;27.448;2022-10-16T03:49:11;101887.09;;;11.63;92.99
8575;BME280;4325;42.520;27.448;2022-10-16T03:51:38;101886.84;;;11.65;93.58
8575;BME280;4325;42.520;27.448;2022-10-16T03:54:06;101891.25;;;11.66;93.79
8575;BME280;4325;42.520;27.448;2022-10-16T03:56:33;101900.22;;;11.61;93.86
8575;BME280;4325;42.520;27.448;2022-10-16T03:59:00;101896.34;;;11.57;94.84
8575;BME280;4325;42.520;27.448;2022-10-16T04:01:27;101888.69;;;11.59;95.13
8575;BME280;4325;42.520;27.448;2022-10-16T04:03:54;101890.84;;;11.57;95.35
8575;BME280;4325;42.520;27.448;2022-10-16T04:06:21;101900.97;;;11.57;95.62
8575;BME280;4325;42.520;27.448;2022-10-16T04:08:47;101904.00;;;11.55;95.58
8575;BME280;4325;42.520;27.448;2022-10-16T04:11:16;101904.13;;;11.49;95.99
8575;BME280;4325;42.520;27.448;2022-10-16T04:13:43;101901.66;;;11.47;96.82
8575;BME280;4325;42.520;27.448;2022-10-16T04:16:09;101902.97;;;11.45;96.59
8575;BME280;4325;42.520;27.448;2022-10-16T04:18:36;101900.81;;;11.47;97.02
8575;BME280;4325;42.520;27.448;2022-10-16T04:21:03;101900.22;;;11.45;96.87
8575;BME280;4325;42.520;27.448;2022-10-16T04:23:30;101895.31;;;11.47;96.91
8575;BME280;4325;42.520;27.448;2022-10-16T04:25:58;101892.34;;;11.48;96.77
8575;BME280;4325;42.520;27.448;2022-10-16T04:28:26;101892.34;;;11.48;96.52
8575;BME280;4325;42.520;27.448;2022-10-16T04:30:54;101897.75;;;11.43;96.80
8575;BME280;4325;42.520;27.448;2022-10-16T04:33:21;101902.06;;;11.39;97.05
8575;BME280;4325;42.520;27.448;2022-10-16T04:35:48;101900.16;;;11.40;96.85
8575;BME280;4325;42.520;27.448;2022-10-16T04:38:15;101904.78;;;11.39;97.32
8575;BME280;4325;42.520;27.448;2022-10-16T04:40:42;101901.56;;;11.42;97.07
8575;BME280;4325;42.520;27.448;2022-10-16T04:43:09;101903.81;;;11.45;96.74
8575;BME280;4325;42.520;27.448;2022-10-16T04:45:37;101904.97;;;11.49;96.24
8575;BME280;4325;42.520;27.448;2022-10-16T04:48:04;101912.78;;;11.57;95.99
8575;BME280;4325;42.520;27.448;2022-10-16T04:50:31;101914.47;;;11.58;95.63
8575;BME280;4325;42.520;27.448;2022-10-16T04:52:58;101915.13;;;11.65;95.06
8575;BME280;4325;42.520;27.448;2022-10-16T04:55:25;101919.50;;;11.66;94.56
8575;BME280;4325;42.520;27.448;2022-10-16T04:57:52;101922.38;;;11.71;94.94
8575;BME280;4325;42.520;27.448;2022-10-16T05:00:19;101919.28;;;11.84;94.33
8575;BME280;4325;42.520;27.448;2022-10-16T05:02:49;101926.59;;;11.96;93.20
8575;BME280;4325;42.520;27.448;2022-10-16T05:05:16;101926.47;;;12.07;92.67
8575;BME280;4325;42.520;27.448;2022-10-16T05:07:44;101925.19;;;12.31;92.25
8575;BME280;4325;42.520;27.448;2022-10-16T05:10:11;101929.66;;;12.59;90.23
8575;BME280;4325;42.520;27.448;2022-10-16T05:12:38;101920.81;;;12.79;88.99
8575;BME280;4325;42.520;27.448;2022-10-16T05:15:06;101922.41;;;12.96;87.11
8575;BME280;4325;42.520;27.448;2022-10-16T05:17:33;101917.09;;;13.11;85.99
8575;BME280;4325;42.520;27.448;2022-10-16T05:20:01;101929.06;;;13.27;84.06
8575;BME280;4325;42.520;27.448;2022-10-16T05:22:28;101934.19;;;13.45;83.02
8575;BME280;4325;42.520;27.448;2022-10-16T05:24:55;101938.16;;;13.59;82.60
8575;BME280;4325;42.520;27.448;2022-10-16T05:27:22;101937.47;;;13.74;81.33
8575;BME280;4325;42.520;27.448;2022-10-16T05:29:49;101940.34;;;13.89;79.75
8575;BME280;4325;42.520;27.448;2022-10-16T05:32:17;101940.41;;;13.99;79.68
8575;BME280;4325;42.520;27.448;2022-10-16T05:34:45;101941.59;;;14.13;78.59
8575;BME280;4325;42.520;27.448;2022-10-16T05:37:13;101948.84;;;14.29;78.07
8575;BME280;4325;42.520;27.448;2022-10-16T05:39:40;101950.63;;;14.50;76.95
8575;BME280;4325;42.520;27.448;2022-10-16T05:42:07;101944.38;;;14.70;75.85
8575;BME280;4325;42.520;27.448;2022-10-16T05:44:34;101953.59;;;14.96;73.72
8575;BME280;4325;42.520;27.448;2022-10-16T05:47:01;101947.00;;;15.17;71.53
8575;BME280;4325;42.520;27.448;2022-10-16T05:49:28;101960.31;;;15.40;69.39
8575;BME280;4325;42.520;27.448;2022-10-16T05:51:54;101961.72;;;15.68;68.05
8575;BME280;4325;42.520;27.448;2022-10-16T05:54:23;101960.34;;;15.96;66.13
8575;BME280;4325;42.520;27.448;2022-10-16T05:56:50;101958.09;;;16.23;64.59
8575;BME280;4325;42.520;27.448;2022-10-16T05:59:16;101962.47;;;16.44;63.14
8575;BME280;4325;42.520;27.448;2022-10-16T06:01:43;101963.28;;;16.60;62.13
8575;BME280;4325;42.520;27.448;2022-10-16T06:04:10;101961.25;;;16.80;60.64
8575;BME280;4325;42.520;27.448;2022-10-16T06:06:37;101975.50;;;17.07;58.81
8575;BME280;4325;42.520;27.448;2022-10-16T06:09:04;101968.69;;;17.34;57.82
8575;BME280;4325;42.520;27.448;2022-10-16T06:11:33;101966.97;;;17.43;56.60
8575;BME280;4325;42.520;27.448;2022-10-16T06:14:01;101978.06;;;17.38;56.69
8575;BME280;4325;42.520;27.448;2022-10-16T06:16:32;101973.16;;;17.30;55.96
8575;BME280;4325;42.520;27.448;2022-10-16T06:18:59;101973.16;;;17.30;56.42
8575;BME280;4325;42.520;27.448;2022-10-16T06:21:28;101972.53;;;17.38;55.70
8575;BME280;4325;42.520;27.448;2022-10-16T06:23:56;101978.84;;;17.53;55.17
8575;BME280;4325;42.520;27.448;2022-10-16T06:26:25;101980.59;;;17.78;54.61
8575;BME280;4325;42.520;27.448;2022-10-16T06:28:55;101976.13;;;18.11;56.55
8575;BME280;4325;42.520;27.448;2022-10-16T06:31:23;101987.94;;;18.50;57.13
8575;BME280;4325;42.520;27.448;2022-10-16T06:33:53;101982.78;;;19.09;52.72
8575;BME280;4325;42.520;27.448;2022-10-16T06:36:22;101980.94;;;19.42;51.07
8575;BME280;4325;42.520;27.448;2022-10-16T06:38:49;101985.22;;;19.53;49.64
8575;BME280;4325;42.520;27.448;2022-10-16T06:41:18;101983.78;;;19.37;51.32
8575;BME280;4325;42.520;27.448;2022-10-16T06:43:45;101983.38;;;19.25;50.27
8575;BME280;4325;42.520;27.448;2022-10-16T06:46:15;101981.56;;;19.16;49.57
8575;BME280;4325;42.520;27.448;2022-10-16T06:48:42;101987.81;;;19.26;49.44
8575;BME280;4325;42.520;27.448;2022-10-16T06:51:10;101988.78;;;19.35;48.56
8575;BME280;4325;42.520;27.448;2022-10-16T06:53:40;101997.63;;;19.19;48.43
8575;BME280;4325;42.520;27.448;2022-10-16T06:56:08;101998.75;;;18.99;49.25
8575;BME280;4325;42.520;27.448;2022-10-16T06:58:36;101995.28;;;18.88;50.29
8575;BME280;4325;42.520;27.448;2022-10-16T07:01:03;102005.63;;;18.83;50.29
8575;BME280;4325;42.520;27.448;2022-10-16T07:03:31;102005.06;;;19.04;50.07
8575;BME280;4325;42.520;27.448;2022-10-16T07:06:03;102005.53;;;21.54;44.17
8575;BME280;4325;42.520;27.448;2022-10-16T07:08:31;101991.22;;;24.72;37.02
8575;BME280;4325;42.520;27.448;2022-10-16T07:11:00;102006.16;;;27.23;32.24
8575;BME280;4325;42.520;27.448;2022-10-16T07:13:28;102002.75;;;29.50;29.42
8575;BME280;4325;42.520;27.448;2022-10-16T07:15:55;102013.75;;;30.99;26.45
8575;BME280;4325;42.520;27.448;2022-10-16T07:18:22;102009.50;;;32.31;24.99
8575;BME280;4325;42.520;27.448;2022-10-16T07:20:53;102017.38;;;33.50;23.28
8575;BME280;4325;42.520;27.448;2022-10-16T07:23:20;102012.88;;;34.49;22.31
8575;BME280;4325;42.520;27.448;2022-10-16T07:25:53;102018.56;;;35.45;21.55
8575;BME280;4325;42.520;27.448;2022-10-16T07:28:21;102024.56;;;35.82;20.94
8575;BME280;4325;42.520;27.448;2022-10-16T07:30:48;102016.28;;;36.74;19.99
8575;BME280;4325;42.520;27.448;2022-10-16T07:33:15;102016.44;;;37.45;19.10
8575;BME280;4325;42.520;27.448;2022-10-16T07:35:48;102016.28;;;37.59;18.78
8575;BME280;4325;42.520;27.448;2022-10-16T07:38:16;102022.38;;;38.22;18.42
8575;BME280;4325;42.520;27.448;2022-10-16T07:40:44;102020.47;;;39.15;17.63
8575;BME280;4325;42.520;27.448;2022-10-16T07:43:11;102020.13;;;39.95;16.97
8575;BME280;4325;42.520;27.448;2022-10-16T07:45:40;102020.13;;;39.76;16.58
8575;BME280;4325;42.520;27.448;2022-10-16T07:48:12;102022.59;;;38.08;17.58
8575;BME280;4325;42.520;27.448;2022-10-16T07:50:39;102015.19;;;36.58;18.24
8575;BME280;4325;42.520;27.448;2022-10-16T07:53:06;102034.28;;;37.16;18.54
8575;BME280;4325;42.520;27.448;2022-10-16T07:55:34;102013.31;;;37.29;18.16
8575;BME280;4325;42.520;27.448;2022-10-16T07:58:01;102020.94;;;37.02;18.60
8575;BME280;4325;42.520;27.448;2022-10-16T08:00:28;102019.59;;;37.54;18.00
8575;BME280;4325;42.520;27.448;2022-10-16T08:02:56;102018.94;;;39.11;17.25
8575;BME280;4325;42.520;27.448;2022-10-16T08:05:25;102017.91;;;40.39;15.77
8575;BME280;4325;42.520;27.448;2022-10-16T08:07:52;102015.56;;;41.30;15.25
8575;BME280;4325;42.520;27.448;2022-10-16T08:10:20;102017.69;;;42.25;14.55
8575;BME280;4325;42.520;27.448;2022-10-16T08:12:49;102014.09;;;42.21;14.28
8575;BME280;4325;42.520;27.448;2022-10-16T08:15:16;102011.66;;;40.92;14.81
8575;BME280;4325;42.520;27.448;2022-10-16T08:17:44;102019.22;;;41.47;14.99
8575;BME280;4325;42.520;27.448;2022-10-16T08:20:11;102022.53;;;41.74;14.69
8575;BME280;4325;42.520;27.448;2022-10-16T08:22:37;102008.06;;;43.04;13.96
8575;BME280;4325;42.520;27.448;2022-10-16T08:25:05;102011.78;;;42.92;13.34
8575;BME280;4325;42.520;27.448;2022-10-16T08:27:33;102012.38;;;43.77;13.72
8575;BME280;4325;42.520;27.448;2022-10-16T08:30:01;102019.44;;;44.07;13.02
8575;BME280;4325;42.520;27.448;2022-10-16T08:32:28;102020.03;;;44.54;12.94
8575;BME280;4325;42.520;27.448;2022-10-16T08:34:55;102021.72;;;43.25;13.06
8575;BME280;4325;42.520;27.448;2022-10-16T08:37:21;102014.78;;;43.78;13.00
8575;BME280;4325;42.520;27.448;2022-10-16T08:39:48;102024.19;;;43.70;13.39
8575;BME280;4325;42.520;27.448;2022-10-16T08:42:29;102020.44;;;42.41;13.63
8575;BME280;4325;42.520;27.448;2022-10-16T08:45:19;102021.25;;;42.67;13.50
8575;BME280;4325;42.520;27.448;2022-10-16T08:47:51;102021.16;;;42.20;13.69
8575;BME280;4325;42.520;27.448;2022-10-16T08:50:24;102017.44;;;42.83;13.50
8575;BME280;4325;42.520;27.448;2022-10-16T08:52:52;102036.47;;;43.27;13.23
8575;BME280;4325;42.520;27.448;2022-10-16T08:55:31;102030.47;;;43.34;13.18
8575;BME280;4325;42.520;27.448;2022-10-16T08:58:00;102025.97;;;42.48;13.14
8575;BME280;4325;42.520;27.448;2022-10-16T09:00:29;102044.78;;;43.25;13.49
8575;BME280;4325;42.520;27.448;2022-10-16T09:03:03;102030.78;;;43.02;12.81
8575;BME280;4325;42.520;27.448;2022-10-16T09:06:15;102046.03;;;43.24;12.64
8575;BME280;4325;42.520;27.448;2022-10-16T09:08:55;102049.50;;;43.31;12.87
8575;BME280;4325;42.520;27.448;2022-10-16T09:11:33;102034.63;;;42.36;13.04
8575;BME280;4325;42.520;27.448;2022-10-16T09:14:15;102040.72;;;42.25;13.27
8575;BME280;4325;42.520;27.448;2022-10-16T09:16:51;102039.53;;;44.10;12.53
8575;BME280;4325;42.520;27.448;2022-10-16T09:19:27;102042.00;;;45.00;12.42
8575;BME280;4325;42.520;27.448;2022-10-16T09:21:57;102036.28;;;46.24;11.31
8575;BME280;4325;42.520;27.448;2022-10-16T09:24:26;102040.66;;;46.85;10.97
8575;BME280;4325;42.520;27.448;2022-10-16T09:26:53;102047.06;;;46.89;11.15
8575;BME280;4325;42.520;27.448;2022-10-16T09:29:21;102039.78;;;45.68;11.29
8575;BME280;4325;42.520;27.448;2022-10-16T09:31:52;102044.47;;;44.80;11.71
8575;BME280;4325;42.520;27.448;2022-10-16T09:34:24;102049.22;;;45.14;11.75
8575;BME280;4325;42.520;27.448;2022-10-16T09:36:57;102045.66;;;46.52;11.07
8575;BME280;4325;42.520;27.448;2022-10-16T09:39:25;102045.38;;;47.83;10.51
8575;BME280;4325;42.520;27.448;2022-10-16T09:41:52;102047.06;;;48.04;10.19
8575;BME280;4325;42.520;27.448;2022-10-16T09:44:24;102045.53;;;48.52;10.20
8575;BME280;4325;42.520;27.448;2022-10-16T09:47:02;102047.88;;;49.23;9.60
8575;BME280;4325;42.520;27.448;2022-10-16T09:49:29;102057.16;;;49.73;9.64
8575;BME280;4325;42.520;27.448;2022-10-16T09:52:03;102050.09;;;49.54;9.44
8575;BME280;4325;42.520;27.448;2022-10-16T09:54:31;102048.97;;;48.71;9.67
8575;BME280;4325;42.520;27.448;2022-10-16T09:57:04;102045.84;;;47.28;10.13
8575;BME280;4325;42.520;27.448;2022-10-16T09:59:31;102055.28;;;46.58;10.72
8575;BME280;4325;42.520;27.448;2022-10-16T10:02:04;102042.34;;;46.35;10.52
8575;BME280;4325;42.520;27.448;2022-10-16T10:04:40;102042.63;;;47.64;10.14
8575;BME280;4325;42.520;27.448;2022-10-16T10:07:17;102040.41;;;47.59;9.94
8575;BME280;4325;42.520;27.448;2022-10-16T10:09:45;102044.56;;;48.11;10.06
8575;BME280;4325;42.520;27.448;2022-10-16T10:12:20;102037.47;;;48.47;9.97
8575;BME280;4325;42.520;27.448;2022-10-16T10:14:48;102045.59;;;49.33;9.33
8575;BME280;4325;42.520;27.448;2022-10-16T10:17:20;102040.16;;;49.20;9.15
8575;BME280;4325;42.520;27.448;2022-10-16T10:19:50;102042.56;;;49.68;9.10
8575;BME280;4325;42.520;27.448;2022-10-16T10:22:30;102021.97;;;49.97;9.23
8575;BME280;4325;42.520;27.448;2022-10-16T10:25:01;102029.34;;;51.08;8.92
8575;BME280;4325;42.520;27.448;2022-10-16T10:27:42;102031.97;;;52.32;8.31
8575;BME280;4325;42.520;27.448;2022-10-16T10:30:15;102038.91;;;53.14;7.86
8575;BME280;4325;42.520;27.448;2022-10-16T10:32:54;102033.19;;;52.81;7.93
8575;BME280;4325;42.520;27.448;2022-10-16T10:35:31;102028.56;;;53.13;7.96
8575;BME280;4325;42.520;27.448;2022-10-16T10:38:13;102018.13;;;52.10;7.73
8575;BME280;4325;42.520;27.448;2022-10-16T10:40:50;102028.78;;;52.13;8.15
8575;BME280;4325;42.520;27.448;2022-10-16T10:43:30;102021.59;;;52.03;8.09
8575;BME280;4325;42.520;27.448;2022-10-16T10:46:03;102012.41;;;52.90;7.75
8575;BME280;4325;42.520;27.448;2022-10-16T10:48:47;102026.91;;;52.54;7.96
8575;BME280;4325;42.520;27.448;2022-10-16T10:51:22;102018.38;;;51.79;8.01
8575;BME280;4325;42.520;27.448;2022-10-16T10:54:04;102015.66;;;50.83;8.47
8575;BME280;4325;42.520;27.448;2022-10-16T10:56:45;102019.88;;;50.34;8.90
8575;BME280;4325;42.520;27.448;2022-10-16T10:59:35;102027.97;;;50.98;8.32
8575;BME280;4325;42.520;27.448;2022-10-16T11:02:13;102016.25;;;51.63;7.97
8575;BME280;4325;42.520;27.448;2022-10-16T11:04:54;102021.34;;;51.03;8.17
8575;BME280;4325;42.520;27.448;2022-10-16T11:07:28;102021.78;;;50.43;8.47
8575;BME280;4325;42.520;27.448;2022-10-16T11:09:59;102024.78;;;50.96;8.61
8575;BME280;4325;42.520;27.448;2022-10-16T11:12:31;102018.13;;;52.32;7.88
8575;BME280;4325;42.520;27.448;2022-10-16T11:15:04;102018.03;;;52.77;7.32
8575;BME280;4325;42.520;27.448;2022-10-16T11:17:37;102025.44;;;53.52;7.46
8575;BME280;4325;42.520;27.448;2022-10-16T11:20:14;102009.59;;;52.62;7.32
8575;BME280;4325;42.520;27.448;2022-10-16T11:22:48;102021.31;;;52.56;7.42
8575;BME280;4325;42.520;27.448;2022-10-16T11:25:20;102013.28;;;52.68;7.68
8575;BME280;4325;42.520;27.448;2022-10-16T11:27:51;102015.22;;;53.12;7.34
8575;BME280;4325;42.520;27.448;2022-10-16T11:30:25;102004.06;;;53.16;7.52
8575;BME280;4325;42.520;27.448;2022-10-16T11:33:00;101995.91;;;52.92;7.33
8575;BME280;4325;42.520;27.448;2022-10-16T11:35:38;101993.41;;;52.33;7.60
8575;BME280;4325;42.520;27.448;2022-10-16T11:38:10;101996.63;;;52.02;7.66
8575;BME280;4325;42.520;27.448;2022-10-16T11:40:41;102007.28;;;50.96;8.38
8575;BME280;4325;42.520;27.448;2022-10-16T11:43:14;102003.00;;;47.91;10.58
8575;BME280;4325;42.520;27.448;2022-10-16T11:45:44;102002.44;;;45.52;11.98
8575;BME280;4325;42.520;27.448;2022-10-16T11:48:20;101994.09;;;44.99;12.24
8575;BME280;4325;42.520;27.448;2022-10-16T11:50:53;101999.50;;;44.79;12.41
8575;BME280;4325;42.520;27.448;2022-10-16T11:53:28;101992.75;;;46.00;11.87
8575;BME280;4325;42.520;27.448;2022-10-16T11:55:58;102006.31;;;46.92;11.47
8575;BME280;4325;42.520;27.448;2022-10-16T11:58:27;102014.25;;;46.83;11.60
8575;BME280;4325;42.520;27.448;2022-10-16T12:01:02;102002.06;;;46.70;11.58
8575;BME280;4325;42.520;27.448;2022-10-16T12:03:41;101999.56;;;45.15;12.52
8575;BME280;4325;42.520;27.448;2022-10-16T12:06:24;102009.13;;;44.76;12.76
8575;BME280;4325;42.520;27.448;2022-10-16T12:08:53;102001.63;;;43.77;13.19
8575;BME280;4325;42.520;27.448;2022-10-16T12:11:33;102013.13;;;44.60;13.26
8575;BME280;4325;42.520;27.448;2022-10-16T12:14:18;102012.50;;;44.35;13.24
8575;BME280;4325;42.520;27.448;2022-10-16T12:16:53;102017.69;;;43.78;13.79
8575;BME280;4325;42.520;27.448;2022-10-16T12:19:22;102012.56;;;43.05;14.01
8575;BME280;4325;42.520;27.448;2022-10-16T12:21:52;102006.19;;;42.50;14.52
8575;BME280;4325;42.520;27.448;2022-10-16T12:24:27;102013.19;;;42.49;14.47
8575;BME280;4325;42.520;27.448;2022-10-16T12:26:56;102026.38;;;41.84;14.96
8575;BME280;4325;42.520;27.448;2022-10-16T12:29:33;102013.53;;;42.26;14.53
8575;BME280;4325;42.520;27.448;2022-10-16T12:32:03;102020.78;;;42.81;13.76
8575;BME280;4325;42.520;27.448;2022-10-16T12:34:37;102019.97;;;42.81;13.83
8575;BME280;4325;42.520;27.448;2022-10-16T12:37:13;102022.38;;;42.95;13.80
8575;BME280;4325;42.520;27.448;2022-10-16T12:39:41;102001.97;;;42.77;14.10
8575;BME280;4325;42.520;27.448;2022-10-16T12:42:23;102009.34;;;42.02;14.44
8575;BME280;4325;42.520;27.448;2022-10-16T12:44:51;102021.84;;;41.70;15.04
8575;BME280;4325;42.520;27.448;2022-10-16T12:47:20;102018.56;;;42.09;14.85
8575;BME280;4325;42.520;27.448;2022-10-16T12:49:49;102027.50;;;41.74;14.97
8575;BME280;4325;42.520;27.448;2022-10-16T12:52:27;102030.34;;;40.84;15.62
8575;BME280;4325;42.520;27.448;2022-10-16T12:54:58;102024.59;;;40.52;16.08
8575;BME280;4325;42.520;27.448;2022-10-16T12:57:40;102025.66;;;39.86;16.42
8575;BME280;4325;42.520;27.448;2022-10-16T13:00:20;102034.78;;;39.38;16.99
8575;BME280;4325;42.520;27.448;2022-10-16T13:06:17;102016.53;;;38.59;17.67
8575;BME280;4325;42.520;27.448;2022-10-16T13:09:08;102014.34;;;39.36;17.18
8575;BME280;4325;42.520;27.448;2022-10-16T13:11:50;102017.97;;;39.21;17.47
8575;BME280;4325;42.520;27.448;2022-10-16T13:14:35;102015.53;;;38.69;17.59
8575;BME280;4325;42.520;27.448;2022-10-16T13:17:11;102006.75;;;37.32;18.30
8575;BME280;4325;42.520;27.448;2022-10-16T13:19:47;102022.38;;;36.14;19.27
8575;BME280;4325;42.520;27.448;2022-10-16T13:22:24;102014.09;;;35.37;20.26
8575;BME280;4325;42.520;27.448;2022-10-16T13:25:06;102031.47;;;35.81;20.21
8575;BME280;4325;42.520;27.448;2022-10-16T13:27:44;102024.41;;;36.17;19.44